Time;durP1;ratioP1;P1;durP2;ratioP2;P2;SDS_P1;SDS_P2;PMS_P1;PMS_P2;Temp;Humidity;BMP_temperature;BMP_pressure;BME280_temperature;BME280_humidity;BME280_pressure;Samples;Min_cycle;Max_cycle;Signal;HPM_P1;HPM_P2
2020/12/30 00:00:36;;;;;;;13.80;7.22;;;2.90;99.90;;;;;;4909904;28;20087;-82
2020/12/30 00:03:06;;;;;;;16.67;7.55;;;2.90;99.90;;;;;;4909469;28;20154;-81
2020/12/30 00:05:31;;;;;;;13.13;6.18;;;2.90;99.90;;;;;;4907609;28;20103;-82
2020/12/30 00:08:00;;;;;;;10.32;5.85;;;3.00;99.90;;;;;;4909227;28;20519;-83
2020/12/30 00:10:32;;;;;;;13.35;5.68;;;3.00;99.90;;;;;;4919422;28;20098;-82
2020/12/30 00:12:55;;;;;;;13.80;6.28;;;3.00;99.90;;;;;;4907875;28;20083;-83
2020/12/30 00:15:21;;;;;;;11.20;5.80;;;3.00;99.90;;;;;;4903280;28;20102;-82
2020/12/30 00:17:45;;;;;;;12.38;6.07;;;3.00;99.90;;;;;;4903607;28;20468;-81
2020/12/30 00:20:10;;;;;;;16.23;6.57;;;3.00;99.90;;;;;;4907110;28;20147;-82
2020/12/30 00:22:35;;;;;;;13.55;5.82;;;3.00;99.90;;;;;;4907698;28;20098;-82
2020/12/30 00:24:58;;;;;;;12.00;6.10;;;3.00;99.90;;;;;;4907712;28;20096;-82
2020/12/30 00:27:23;;;;;;;12.82;5.88;;;3.00;99.90;;;;;;4905554;28;20092;-82
2020/12/30 00:29:56;;;;;;;11.02;5.78;;;3.00;99.90;;;;;;4906057;28;20115;-82
2020/12/30 00:32:20;;;;;;;17.23;5.82;;;3.00;99.90;;;;;;4911922;28;20085;-80
2020/12/30 00:34:45;;;;;;;11.73;5.40;;;3.00;99.90;;;;;;4906367;28;20234;-82
2020/12/30 00:37:10;;;;;;;9.80;5.33;;;3.00;99.90;;;;;;4908157;28;20095;-82
2020/12/30 00:39:34;;;;;;;12.48;5.45;;;3.00;99.90;;;;;;4896784;28;20555;-82
2020/12/30 00:42:01;;;;;;;13.00;4.90;;;3.00;99.90;;;;;;4906645;28;20123;-83
2020/12/30 00:44:26;;;;;;;12.35;5.78;;;3.00;99.90;;;;;;4905525;28;20431;-82
2020/12/30 00:46:51;;;;;;;12.05;5.50;;;3.00;99.90;;;;;;4909197;28;20124;-82
2020/12/30 00:49:21;;;;;;;10.55;4.97;;;3.00;99.90;;;;;;4911499;28;20080;-83
2020/12/30 00:51:49;;;;;;;13.25;5.13;;;3.00;99.90;;;;;;4910303;28;20087;-82
2020/12/30 00:54:12;;;;;;;16.17;5.70;;;3.00;99.90;;;;;;4912025;28;20927;-83
2020/12/30 00:56:41;;;;;;;11.60;4.95;;;3.00;99.90;;;;;;4909684;28;20531;-81
2020/12/30 00:59:05;;;;;;;10.23;4.93;;;3.00;99.90;;;;;;4905634;28;20092;-81
2020/12/30 01:01:30;;;;;;;12.98;5.10;;;;;;;;;;4903582;28;20092;-82
2020/12/30 01:03:54;;;;;;;9.88;4.50;;;2.90;99.90;;;;;;4911234;28;20086;-82
2020/12/30 01:06:17;;;;;;;10.25;4.68;;;2.90;99.90;;;;;;4909007;28;20122;-80
2020/12/30 01:08:41;;;;;;;10.98;4.78;;;2.90;99.90;;;;;;4906248;28;22799;-81
2020/12/30 01:11:04;;;;;;;10.27;4.82;;;2.80;99.90;;;;;;4912326;28;20224;-80
2020/12/30 01:13:27;;;;;;;11.27;4.75;;;2.70;99.90;;;;;;4908247;28;20110;-81
2020/12/30 01:15:51;;;;;;;12.52;5.57;;;2.70;99.90;;;;;;4907182;28;20588;-81
2020/12/30 01:18:16;;;;;;;8.75;4.18;;;2.60;99.90;;;;;;4906519;28;20092;-82
2020/12/30 01:20:39;;;;;;;9.00;4.60;;;2.60;99.90;;;;;;4909156;28;20088;-83
2020/12/30 01:23:03;;;;;;;9.63;4.55;;;2.50;99.90;;;;;;4909994;28;20095;-82
2020/12/30 01:25:26;;;;;;;18.05;4.72;;;2.50;99.90;;;;;;4909946;28;20081;-82
2020/12/30 01:27:56;;;;;;;10.77;4.55;;;2.50;99.90;;;;;;4906895;28;20143;-82
2020/12/30 01:30:21;;;;;;;12.75;4.95;;;2.60;99.90;;;;;;4912279;28;20110;-81
2020/12/30 01:32:46;;;;;;;9.85;4.45;;;2.60;99.90;;;;;;4910996;28;20082;-83
2020/12/30 01:35:10;;;;;;;8.05;4.28;;;2.60;99.90;;;;;;4909927;28;20138;-82
2020/12/30 01:37:33;;;;;;;8.77;4.13;;;2.60;99.90;;;;;;4906029;28;20232;-82
2020/12/30 01:40:02;;;;;;;11.88;4.30;;;2.60;99.90;;;;;;4907978;28;20500;-82
2020/12/30 01:42:25;;;;;;;9.25;3.72;;;2.50;99.90;;;;;;4902917;28;20137;-83
2020/12/30 01:44:55;;;;;;;6.57;3.75;;;2.60;99.90;;;;;;4883759;28;25014;-82
2020/12/30 01:47:22;;;;;;;9.23;4.40;;;2.50;99.90;;;;;;4900792;28;20142;-82
2020/12/30 01:49:45;;;;;;;12.07;4.22;;;2.60;99.90;;;;;;4910691;28;20091;-82
2020/12/30 01:52:09;;;;;;;9.50;4.25;;;2.60;99.90;;;;;;4910495;28;20125;-82
2020/12/30 01:54:32;;;;;;;9.60;4.15;;;2.50;99.90;;;;;;4906620;28;20092;-82
2020/12/30 01:56:55;;;;;;;9.57;4.18;;;2.50;99.90;;;;;;4909350;28;20225;-82
2020/12/30 01:59:22;;;;;;;7.88;4.10;;;2.40;99.90;;;;;;4906003;28;20976;-82
2020/12/30 02:02:03;;;;;;;13.57;4.05;;;2.30;99.90;;;;;;4904084;28;20170;-82
2020/12/30 02:04:48;;;;;;;10.30;4.65;;;2.40;99.90;;;;;;4904773;28;20161;-82
2020/12/30 02:07:16;;;;;;;9.63;3.95;;;2.40;99.90;;;;;;4905454;28;20088;-82
2020/12/30 02:09:40;;;;;;;9.48;4.15;;;2.40;99.90;;;;;;4904411;28;20509;-82
2020/12/30 02:12:07;;;;;;;10.32;4.53;;;2.40;99.90;;;;;;4904465;28;20082;-82
2020/12/30 02:14:31;;;;;;;11.85;4.20;;;;;;;;;;4895090;28;20087;-81
2020/12/30 02:16:56;;;;;;;9.32;4.03;;;2.50;99.90;;;;;;4913082;28;20144;-82
2020/12/30 02:19:20;;;;;;;10.02;3.95;;;2.50;99.90;;;;;;4906931;28;20095;-81
2020/12/30 02:21:46;;;;;;;12.63;4.30;;;2.50;99.90;;;;;;4905683;28;20098;-82
2020/12/30 02:24:15;;;;;;;9.77;4.32;;;2.50;99.90;;;;;;4901791;28;20435;-82
2020/12/30 02:26:39;;;;;;;8.27;4.07;;;;;;;;;;4902629;28;20126;-81
2020/12/30 02:29:06;;;;;;;9.57;4.60;;;2.50;99.90;;;;;;4907696;28;20095;-82
2020/12/30 02:31:31;;;;;;;8.35;4.10;;;2.60;99.90;;;;;;4909151;28;20099;-83
2020/12/30 02:34:05;;;;;;;9.30;4.22;;;;;;;;;;4900897;28;20088;-82
2020/12/30 02:36:28;;;;;;;9.40;3.95;;;2.60;99.90;;;;;;4888534;28;20097;-82
2020/12/30 02:38:55;;;;;;;10.60;4.25;;;2.70;99.90;;;;;;4896217;28;20088;-82
2020/12/30 02:41:19;;;;;;;8.23;4.07;;;2.70;99.90;;;;;;4909266;28;20157;-82
2020/12/30 02:43:43;;;;;;;15.32;3.72;;;2.60;99.90;;;;;;4890150;28;20085;-82
2020/12/30 02:46:08;;;;;;;7.57;3.95;;;2.60;99.90;;;;;;4890518;28;20552;-82
2020/12/30 02:48:32;;;;;;;11.32;4.38;;;2.60;99.90;;;;;;4903699;28;20082;-82
2020/12/30 02:50:56;;;;;;;8.75;4.25;;;2.60;99.90;;;;;;4914896;28;20096;-82
2020/12/30 02:53:20;;;;;;;9.85;3.53;;;2.60;99.90;;;;;;4918112;28;20094;-82
2020/12/30 02:55:47;;;;;;;6.63;3.15;;;2.70;99.90;;;;;;4910470;28;20090;-82
2020/12/30 02:58:11;;;;;;;11.82;4.03;;;2.70;99.90;;;;;;4921770;28;20088;-82
2020/12/30 03:00:39;;;;;;;8.70;4.03;;;;;;;;;;4921532;28;20091;-82
2020/12/30 03:03:03;;;;;;;6.18;3.08;;;2.60;99.90;;;;;;4918605;28;20472;-82
2020/12/30 03:05:26;;;;;;;13.02;4.78;;;;;;;;;;4914580;28;20172;-82
2020/12/30 03:07:49;;;;;;;6.97;3.30;;;2.60;99.90;;;;;;4924071;28;20085;-82
2020/12/30 03:10:13;;;;;;;9.65;4.63;;;2.60;99.90;;;;;;4901564;28;20089;-81
2020/12/30 03:12:36;;;;;;;9.02;4.18;;;2.70;99.90;;;;;;4907102;28;20177;-82
2020/12/30 03:14:59;;;;;;;9.23;3.97;;;2.70;99.90;;;;;;4912595;28;20085;-82
2020/12/30 03:17:23;;;;;;;9.25;4.13;;;2.60;99.90;;;;;;4914503;28;20464;-81
2020/12/30 03:19:47;;;;;;;9.38;4.15;;;2.60;99.90;;;;;;4899773;28;20096;-82
2020/12/30 03:22:15;;;;;;;11.40;4.20;;;2.60;99.90;;;;;;4911681;28;20592;-82
2020/12/30 03:24:44;;;;;;;13.35;3.95;;;2.50;99.90;;;;;;4913126;28;20171;-82
2020/12/30 03:27:07;;;;;;;10.05;4.13;;;2.60;99.90;;;;;;4900103;28;20159;-81
2020/12/30 03:29:30;;;;;;;8.80;3.90;;;2.60;99.90;;;;;;4911290;28;20450;-81
2020/12/30 03:31:53;;;;;;;7.85;3.65;;;2.60;99.90;;;;;;4911555;28;20135;-82
2020/12/30 03:34:20;;;;;;;9.63;4.63;;;;;;;;;;4910304;28;20091;-82
2020/12/30 03:36:46;;;;;;;14.63;4.05;;;1.50;99.90;;;;;;4900178;28;20080;-81
2020/12/30 03:39:09;;;;;;;9.73;4.43;;;2.60;99.90;;;;;;4911646;28;20126;-81
2020/12/30 03:41:34;;;;;;;12.65;4.55;;;2.50;99.90;;;;;;4907017;28;20092;-80
2020/12/30 03:43:58;;;;;;;7.53;4.25;;;2.50;99.90;;;;;;4891288;28;20121;-82
2020/12/30 03:46:21;;;;;;;12.00;3.92;;;2.50;99.90;;;;;;4921159;28;20083;-81
2020/12/30 03:48:44;;;;;;;11.15;3.97;;;2.50;99.90;;;;;;4917619;28;20090;-81
2020/12/30 03:51:09;;;;;;;9.40;4.32;;;2.50;99.90;;;;;;4915648;28;20159;-81
2020/12/30 03:53:34;;;;;;;10.48;4.57;;;2.40;99.90;;;;;;4916073;28;20104;-81
2020/12/30 03:55:58;;;;;;;7.57;4.03;;;2.40;99.90;;;;;;4919484;28;20169;-82
2020/12/30 03:58:21;;;;;;;9.73;4.13;;;2.40;99.90;;;;;;4908398;28;20118;-81
2020/12/30 04:00:48;;;;;;;16.25;4.93;;;2.30;99.90;;;;;;4913881;28;20104;-82
2020/12/30 04:03:11;;;;;;;11.27;4.40;;;;;;;;;;4912102;28;20088;-82
2020/12/30 04:05:34;;;;;;;9.82;4.30;;;2.30;99.90;;;;;;4912717;28;20088;-82
2020/12/30 04:07:57;;;;;;;7.65;3.70;;;2.20;99.90;;;;;;4909625;28;20123;-82
2020/12/30 04:10:21;;;;;;;11.68;4.78;;;;;;;;;;4910889;28;20188;-82
2020/12/30 04:12:45;;;;;;;14.20;4.70;;;2.20;99.90;;;;;;4908505;28;20088;-82
2020/12/30 04:15:08;;;;;;;11.07;4.15;;;2.10;99.90;;;;;;4907148;28;20089;-82
2020/12/30 04:17:31;;;;;;;9.52;4.43;;;2.10;99.90;;;;;;4909042;28;20098;-82
2020/12/30 04:19:55;;;;;;;10.80;4.53;;;2.10;99.90;;;;;;4902013;28;20087;-82
2020/12/30 04:22:19;;;;;;;9.55;4.03;;;2.10;99.90;;;;;;4911814;28;20087;-83
2020/12/30 04:24:43;;;;;;;11.80;4.32;;;2.00;99.90;;;;;;4891861;28;20091;-82
2020/12/30 04:27:07;;;;;;;14.68;4.80;;;2.00;99.90;;;;;;4893398;28;20143;-82
2020/12/30 04:29:30;;;;;;;11.77;4.65;;;2.00;99.90;;;;;;4902440;28;20103;-82
2020/12/30 04:31:53;;;;;;;7.55;3.75;;;2.00;99.90;;;;;;4914960;28;20296;-82
2020/12/30 04:34:17;;;;;;;12.13;4.38;;;2.00;99.90;;;;;;4920762;28;20122;-81
2020/12/30 04:36:40;;;;;;;9.75;4.13;;;2.00;99.90;;;;;;4913503;28;20153;-81
2020/12/30 04:39:06;;;;;;;12.10;4.43;;;2.00;99.90;;;;;;4923635;28;20120;-81
2020/12/30 04:41:34;;;;;;;13.63;4.43;;;2.00;99.90;;;;;;4900146;28;20163;-81
2020/12/30 04:44:01;;;;;;;9.95;4.13;;;2.10;99.90;;;;;;4913352;28;20631;-82
2020/12/30 04:46:28;;;;;;;9.88;4.50;;;2.10;99.90;;;;;;4910550;28;20176;-82
2020/12/30 04:48:52;;;;;;;8.63;3.42;;;2.20;99.90;;;;;;4907750;28;20110;-82
2020/12/30 04:51:18;;;;;;;11.20;4.75;;;2.20;99.90;;;;;;4902962;28;20837;-81
2020/12/30 04:53:45;;;;;;;;;;;2.20;99.90;;;;;;4911760;28;20117;-82
2020/12/30 04:56:10;;;;;;;12.27;4.20;;;2.20;99.90;;;;;;4901334;28;19968;-82
2020/12/30 04:58:33;;;;;;;8.90;3.65;;;2.30;99.90;;;;;;4916406;28;20095;-81
2020/12/30 05:00:59;;;;;;;7.03;3.58;;;2.20;99.90;;;;;;4914144;28;20090;-82
2020/12/30 05:03:28;;;;;;;7.43;3.72;;;2.20;99.90;;;;;;4912933;28;20091;-82
2020/12/30 05:06:01;;;;;;;10.18;3.72;;;2.20;99.90;;;;;;4916379;28;20101;-82
2020/12/30 05:08:26;;;;;;;7.30;3.40;;;2.20;99.90;;;;;;4903741;28;20121;-82
2020/12/30 05:10:52;;;;;;;;;;;2.20;99.90;;;;;;4926745;28;20097;-81
2020/12/30 05:13:16;;;;;;;9.52;3.20;;;2.20;99.90;;;;;;4905009;28;19974;-82
2020/12/30 05:15:39;;;;;;;10.93;4.10;;;2.20;99.90;;;;;;4910011;28;20101;-81
2020/12/30 05:18:06;;;;;;;7.05;3.60;;;2.20;99.90;;;;;;4907898;28;20106;-82
2020/12/30 05:20:35;;;;;;;8.88;3.78;;;2.10;99.90;;;;;;4899880;28;20169;-83
2020/12/30 05:22:58;;;;;;;11.57;3.85;;;2.10;99.90;;;;;;4911912;28;20149;-82
2020/12/30 05:25:26;;;;;;;9.77;4.25;;;2.20;99.90;;;;;;4910342;28;20098;-82
2020/12/30 05:27:53;;;;;;;8.55;3.78;;;2.10;99.90;;;;;;4908224;28;20168;-82
2020/12/30 05:30:17;;;;;;;8.13;3.85;;;2.10;99.90;;;;;;4906070;28;20088;-81
2020/12/30 05:32:40;;;;;;;8.02;4.03;;;2.10;99.90;;;;;;4912358;28;20115;-83
2020/12/30 05:35:05;;;;;;;8.32;3.38;;;2.10;99.90;;;;;;4906796;28;20480;-83
2020/12/30 05:37:33;;;;;;;11.02;4.32;;;2.10;99.90;;;;;;4911847;28;20111;-82
2020/12/30 05:39:56;;;;;;;7.57;3.35;;;2.10;99.90;;;;;;4905845;28;20197;-82
2020/12/30 05:42:21;;;;;;;11.73;3.58;;;2.00;99.90;;;;;;4908049;28;20124;-82
2020/12/30 05:44:54;;;;;;;9.20;3.95;;;2.10;99.90;;;;;;4917209;28;20528;-82
2020/12/30 05:47:20;;;;;;;7.72;3.92;;;2.10;99.90;;;;;;4902127;28;20096;-82
2020/12/30 05:49:44;;;;;;;8.45;3.88;;;2.00;99.90;;;;;;4905680;28;20170;-82
2020/12/30 05:52:21;;;;;;;11.48;4.20;;;1.90;99.90;;;;;;4904468;28;20543;-83
2020/12/30 05:54:55;;;;;;;8.27;3.55;;;1.90;99.90;;;;;;4904773;28;20091;-82
2020/12/30 05:57:29;;;;;;;7.78;4.05;;;1.90;99.90;;;;;;4907331;28;20094;-81
2020/12/30 05:59:54;;;;;;;5.95;3.47;;;1.90;99.90;;;;;;4904407;28;20099;-83
2020/12/30 06:02:20;;;;;;;;;;;1.90;99.90;;;;;;4908225;28;20114;-83
2020/12/30 06:04:43;;;;;;;7.68;3.70;;;1.90;99.90;;;;;;4908613;28;20045;-83
2020/12/30 06:07:12;;;;;;;11.75;3.95;;;2.00;99.90;;;;;;4906798;28;20100;-83
2020/12/30 06:09:40;;;;;;;8.07;3.97;;;2.00;99.90;;;;;;4890033;28;20102;-83
2020/12/30 06:12:05;;;;;;;14.77;3.95;;;2.00;99.90;;;;;;4905898;28;20175;-81
2020/12/30 06:14:31;;;;;;;;;;;2.00;99.90;;;;;;4907653;28;22954;-81
2020/12/30 06:17:00;;;;;;;9.43;3.83;;;2.00;99.90;;;;;;4902388;28;20442;-82
2020/12/30 06:19:25;;;;;;;10.65;4.03;;;2.00;99.90;;;;;;4899543;28;20130;-82
2020/12/30 06:21:49;;;;;;;9.15;3.97;;;2.00;99.90;;;;;;4903624;28;20104;-82
2020/12/30 06:24:17;;;;;;;8.50;4.20;;;2.00;99.90;;;;;;4905635;28;20093;-82
2020/12/30 06:26:43;;;;;;;8.13;4.32;;;2.00;99.90;;;;;;4901757;28;21302;-81
2020/12/30 06:29:12;;;;;;;9.18;4.20;;;2.00;99.90;;;;;;4904709;28;20091;-82
2020/12/30 06:31:43;;;;;;;9.75;4.30;;;2.00;99.90;;;;;;4904909;28;20175;-82
2020/12/30 06:34:06;;;;;;;11.43;4.85;;;2.00;99.90;;;;;;4901299;28;20479;-82
2020/12/30 06:36:29;;;;;;;9.95;4.03;;;1.90;99.90;;;;;;4905950;28;20102;-82
2020/12/30 06:38:52;;;;;;;7.35;4.25;;;1.90;99.90;;;;;;4907168;28;20088;-82
2020/12/30 06:41:15;;;;;;;7.78;3.70;;;1.90;99.90;;;;;;4905377;28;20083;-82
2020/12/30 06:43:47;;;;;;;7.80;4.22;;;1.80;99.90;;;;;;4899511;28;20160;-80
2020/12/30 06:46:12;;;;;;;9.82;4.55;;;1.80;99.90;;;;;;4901588;28;20092;-81
2020/12/30 06:48:54;;;;;;;9.10;4.57;;;1.80;99.90;;;;;;4904115;28;20830;-81
2020/12/30 06:51:18;;;;;;;9.00;4.30;;;;;;;;;;4904043;28;20172;-81
2020/12/30 06:53:50;;;;;;;9.20;4.82;;;1.80;99.90;;;;;;4904855;28;20206;-81
2020/12/30 06:56:14;;;;;;;12.68;5.03;;;1.80;99.90;;;;;;4894683;28;20097;-82
2020/12/30 06:58:49;;;;;;;7.72;4.22;;;1.80;99.90;;;;;;4916831;28;20091;-81
2020/12/30 07:01:13;;;;;;;10.10;5.05;;;1.80;99.90;;;;;;4902350;28;20488;-82
2020/12/30 07:03:36;;;;;;;13.35;4.78;;;1.80;99.90;;;;;;4907065;28;20096;-82
2020/12/30 07:06:25;;;;;;;10.00;4.88;;;1.90;99.90;;;;;;4899890;28;20155;-82
2020/12/30 07:08:50;;;;;;;10.18;4.43;;;1.90;99.90;;;;;;4902526;28;20091;-82
2020/12/30 07:11:13;;;;;;;7.93;4.28;;;1.90;99.90;;;;;;4898112;28;20106;-82
2020/12/30 07:13:45;;;;;;;8.88;4.20;;;1.90;99.90;;;;;;4904418;28;20115;-81
2020/12/30 07:16:19;;;;;;;10.05;5.03;;;1.90;99.90;;;;;;4895686;28;20320;-81
2020/12/30 07:18:48;;;;;;;10.70;4.93;;;1.90;99.90;;;;;;4906207;28;20145;-82
2020/12/30 07:21:15;;;;;;;7.70;4.07;;;1.90;99.90;;;;;;4905677;28;20091;-80
2020/12/30 07:23:39;;;;;;;9.77;4.55;;;1.80;99.90;;;;;;4901834;28;20091;-82
2020/12/30 07:26:04;;;;;;;11.23;4.72;;;1.80;99.90;;;;;;4906489;28;20088;-81
2020/12/30 07:28:31;;;;;;;;;;;1.80;99.90;;;;;;4899737;28;20101;-82
2020/12/30 07:30:54;;;;;;;;;;;1.80;99.90;;;;;;4905775;28;19965;-82
2020/12/30 07:33:20;;;;;;;10.43;3.95;;;1.80;99.90;;;;;;4914281;28;20053;-82
2020/12/30 07:35:45;;;;;;;8.45;4.43;;;1.80;99.90;;;;;;4902573;28;20097;-81
2020/12/30 07:38:14;;;;;;;10.88;4.70;;;1.90;99.90;;;;;;4913388;28;20430;-82
2020/12/30 07:40:43;;;;;;;10.18;4.38;;;1.90;99.90;;;;;;4909963;28;20443;-82
2020/12/30 07:43:06;;;;;;;11.48;4.70;;;1.90;99.90;;;;;;4892468;28;20086;-82
2020/12/30 07:45:31;;;;;;;13.00;4.85;;;2.00;99.90;;;;;;4910313;28;25409;-82
2020/12/30 07:47:57;;;;;;;8.43;4.80;;;2.00;99.90;;;;;;4901036;28;20088;-82
2020/12/30 07:50:27;;;;;;;11.52;4.70;;;;;;;;;;4911789;28;20096;-83
2020/12/30 07:52:56;;;;;;;17.25;4.57;;;2.10;99.90;;;;;;4891518;28;20172;-82
2020/12/30 07:55:26;;;;;;;11.00;4.82;;;2.20;99.90;;;;;;4908946;28;20092;-82
2020/12/30 07:57:56;;;;;;;10.63;4.55;;;2.10;99.90;;;;;;4905702;28;20096;-81
2020/12/30 08:00:21;;;;;;;11.77;5.00;;;2.20;99.90;;;;;;4901407;28;20131;-81
2020/12/30 08:02:57;;;;;;;9.00;4.43;;;2.10;99.90;;;;;;4917384;28;20080;-82
2020/12/30 08:05:21;;;;;;;11.63;4.15;;;2.20;99.90;;;;;;4904054;28;20097;-81
2020/12/30 08:07:46;;;;;;;8.80;4.32;;;2.20;99.90;;;;;;4907552;28;20895;-83
2020/12/30 08:10:11;;;;;;;9.70;4.55;;;2.20;99.90;;;;;;4910867;28;20095;-82
2020/12/30 08:12:34;;;;;;;15.23;5.78;;;2.30;99.90;;;;;;4904254;28;20161;-82
2020/12/30 08:14:59;;;;;;;9.23;4.10;;;2.20;99.90;;;;;;4907854;28;21058;-82
2020/12/30 08:17:23;;;;;;;11.10;4.78;;;2.10;99.90;;;;;;4904533;28;20098;-82
2020/12/30 08:19:47;;;;;;;10.32;4.35;;;2.20;99.90;;;;;;4909182;28;20145;-82
2020/12/30 08:22:12;;;;;;;10.10;4.60;;;2.10;99.90;;;;;;4907368;28;20184;-82
2020/12/30 08:24:41;;;;;;;12.38;4.35;;;2.10;99.90;;;;;;4908257;28;20529;-82
2020/12/30 08:27:11;;;;;;;9.95;4.03;;;2.10;99.90;;;;;;4913635;28;20085;-82
2020/12/30 08:29:36;;;;;;;10.73;4.75;;;2.10;99.90;;;;;;4901711;28;20090;-83
2020/12/30 08:32:04;;;;;;;9.98;4.30;;;2.10;99.90;;;;;;4901545;28;20149;-82
2020/12/30 08:34:43;;;;;;;9.20;4.47;;;2.20;99.90;;;;;;4911155;28;20084;-83
2020/12/30 08:37:11;;;;;;;7.47;3.72;;;2.20;99.90;;;;;;4897658;28;20093;-82
2020/12/30 08:39:43;;;;;;;12.07;4.93;;;2.20;99.90;;;;;;4892693;28;21884;-82
2020/12/30 08:42:14;;;;;;;9.25;4.05;;;2.30;99.90;;;;;;4910356;28;20508;-81
2020/12/30 08:44:48;;;;;;;10.73;4.30;;;2.30;99.90;;;;;;4911493;28;20148;-82
2020/12/30 08:47:14;;;;;;;10.30;4.80;;;2.30;99.90;;;;;;4909095;28;20091;-82
2020/12/30 08:49:43;;;;;;;11.68;4.22;;;2.30;99.90;;;;;;4913294;28;20509;-82
2020/12/30 08:52:26;;;;;;;12.23;4.10;;;2.30;99.90;;;;;;4907321;28;20600;-82
2020/12/30 08:55:02;;;;;;;10.68;4.43;;;2.20;99.90;;;;;;4905437;28;20527;-83
2020/12/30 08:57:24;;;;;;;8.65;3.63;;;2.20;99.90;;;;;;4905174;28;20593;-82
2020/12/30 08:59:48;;;;;;;13.13;4.88;;;2.20;99.90;;;;;;4907355;28;20156;-81
2020/12/30 09:02:21;;;;;;;8.70;4.35;;;2.20;99.90;;;;;;4881801;28;20128;-83
2020/12/30 09:05:12;;;;;;;7.82;4.40;;;2.20;99.90;;;;;;4853872;28;20085;-81
2020/12/30 09:08:24;;;;;;;11.88;4.70;;;2.30;99.90;;;;;;4831509;28;20092;-81
2020/12/30 09:11:44;;;;;;;9.27;4.35;;;2.30;99.90;;;;;;4856247;28;20092;-81
2020/12/30 09:18:30;;;;;;;10.15;3.97;;;2.40;99.90;;;;;;4857313;28;20093;-81
2020/12/30 09:21:40;;;;;;;13.35;4.13;;;2.50;99.90;;;;;;4839926;28;21810;-82
2020/12/30 09:24:27;;;;;;;11.80;4.70;;;2.50;99.90;;;;;;4835754;28;20095;-82
2020/12/30 09:27:26;;;;;;;14.05;4.45;;;2.50;99.90;;;;;;4854494;28;20096;-82
2020/12/30 09:30:30;;;;;;;7.43;4.13;;;2.60;99.90;;;;;;4861775;28;20120;-83
2020/12/30 09:33:30;;;;;;;8.25;4.32;;;2.60;99.90;;;;;;4843044;28;20086;-82
2020/12/30 09:36:27;;;;;;;10.55;4.53;;;2.60;99.90;;;;;;4855777;28;20130;-83
2020/12/30 09:39:14;;;;;;;6.03;3.72;;;2.60;99.90;;;;;;4856096;28;20098;-81
2020/12/30 09:42:18;;;;;;;11.55;4.28;;;2.70;99.90;;;;;;4852404;28;20436;-81
2020/12/30 09:48:31;;;;;;;16.20;4.82;;;2.80;99.90;;;;;;4852644;28;22070;-81
2020/12/30 09:54:26;;;;;;;12.15;4.78;;;2.90;99.90;;;;;;4844215;28;20079;-81
2020/12/30 10:16:49;;;;;;;7.90;3.78;;;4.40;99.90;;;;;;4854211;28;20088;-83
2020/12/30 10:19:58;;;;;;;11.80;3.80;;;4.30;99.90;;;;;;4853987;28;20117;-82
2020/12/30 10:32:44;;;;;;;8.23;4.22;;;4.00;99.90;;;;;;4861980;28;20079;-79
2020/12/30 10:42:07;;;;;;;10.55;4.10;;;3.70;99.90;;;;;;4840381;28;20160;-81
2020/12/30 10:45:03;;;;;;;9.70;4.20;;;3.50;99.90;;;;;;4848891;28;20194;-81
2020/12/30 10:47:28;;;;;;;7.63;3.85;;;;;;;;;;4876916;28;20171;-81
2020/12/30 10:49:51;;;;;;;9.45;3.85;;;3.50;99.90;;;;;;4907405;28;20102;-82
2020/12/30 10:52:20;;;;;;;6.13;3.35;;;3.40;99.90;;;;;;4901851;28;20098;-83
2020/12/30 10:54:43;;;;;;;8.00;3.80;;;3.30;99.90;;;;;;4910503;28;20092;-83
2020/12/30 10:57:06;;;;;;;11.10;4.18;;;3.20;99.90;;;;;;4904674;28;20137;-81
2020/12/30 10:59:29;;;;;;;6.65;3.60;;;3.20;99.90;;;;;;4912106;28;20084;-82
2020/12/30 11:01:53;;;;;;;11.50;4.55;;;3.10;99.90;;;;;;4905662;28;20106;-83
2020/12/30 11:04:18;;;;;;;7.55;3.55;;;;;;;;;;4895971;28;20095;-82
2020/12/30 11:06:41;;;;;;;8.25;3.60;;;3.20;99.90;;;;;;4916297;28;20099;-82
2020/12/30 11:09:05;;;;;;;8.88;4.32;;;3.30;99.90;;;;;;4925372;28;20225;-82
2020/12/30 11:11:28;;;;;;;9.25;3.97;;;3.30;99.90;;;;;;4915343;28;20151;-83
2020/12/30 11:13:57;;;;;;;8.45;3.95;;;3.40;99.90;;;;;;4918301;28;20125;-82
2020/12/30 11:16:20;;;;;;;9.82;3.92;;;3.50;99.90;;;;;;4906646;28;20095;-82
2020/12/30 11:18:47;;;;;;;7.55;3.90;;;3.50;99.90;;;;;;4914879;28;20102;-82
2020/12/30 11:21:12;;;;;;;12.65;3.80;;;3.50;99.90;;;;;;4910361;28;20095;-80
2020/12/30 11:23:34;;;;;;;7.68;3.33;;;3.50;99.90;;;;;;4907975;28;20097;-82
2020/12/30 11:25:58;;;;;;;10.63;3.65;;;3.70;99.90;;;;;;4907698;28;20088;-81
2020/12/30 11:28:23;;;;;;;6.75;3.83;;;3.90;99.90;;;;;;4908730;28;20463;-83
2020/12/30 11:30:48;;;;;;;7.07;3.22;;;4.10;99.90;;;;;;4913852;28;20121;-82
2020/12/30 11:33:14;;;;;;;6.72;3.20;;;4.10;99.90;;;;;;4917941;28;20082;-82
2020/12/30 11:35:45;;;;;;;7.75;3.25;;;4.10;99.90;;;;;;4916300;28;20091;-83
2020/12/30 11:38:10;;;;;;;8.52;2.88;;;4.10;99.90;;;;;;4907487;28;20552;-81
2020/12/30 11:40:35;;;;;;;5.40;3.20;;;4.00;99.90;;;;;;4901573;28;20518;-82
2020/12/30 11:42:58;;;;;;;5.63;2.90;;;4.10;99.90;;;;;;4893129;28;20094;-83
2020/12/30 11:45:21;;;;;;;5.93;3.17;;;4.00;99.90;;;;;;4912605;28;20091;-82
2020/12/30 11:47:44;;;;;;;5.70;3.38;;;4.00;99.90;;;;;;4909628;28;20166;-82
2020/12/30 11:50:11;;;;;;;5.30;2.95;;;3.90;99.90;;;;;;4899485;28;20537;-82
2020/12/30 11:52:34;;;;;;;8.13;3.70;;;3.90;99.90;;;;;;4910559;28;20094;-82
2020/12/30 11:54:58;;;;;;;7.78;3.40;;;3.90;99.90;;;;;;4900002;28;20129;-81
2020/12/30 11:57:21;;;;;;;5.85;2.97;;;3.90;99.90;;;;;;4911453;28;20509;-81
2020/12/30 11:59:45;;;;;;;7.20;3.10;;;3.90;99.90;;;;;;4911662;28;20102;-82
2020/12/30 12:02:08;;;;;;;7.47;3.28;;;4.00;99.90;;;;;;4911359;28;20099;-79
2020/12/30 12:04:38;;;;;;;8.52;3.83;;;4.00;99.90;;;;;;4902422;28;20563;-81
2020/12/30 12:07:03;;;;;;;7.32;3.83;;;4.00;99.90;;;;;;4909462;28;20178;-80
2020/12/30 12:09:26;;;;;;;12.52;3.70;;;4.00;99.90;;;;;;4908543;28;20140;-80
2020/12/30 12:11:50;;;;;;;13.18;3.83;;;4.00;99.90;;;;;;4908915;28;20097;-80
2020/12/30 12:14:13;;;;;;;9.82;3.75;;;4.10;99.90;;;;;;4909819;28;20094;-82
2020/12/30 12:16:37;;;;;;;7.75;3.30;;;4.10;99.90;;;;;;4908390;28;20091;-82
2020/12/30 12:19:00;;;;;;;7.97;3.50;;;4.10;99.90;;;;;;4899757;28;20087;-81
2020/12/30 12:21:24;;;;;;;5.97;3.28;;;4.20;99.90;;;;;;4907110;28;20115;-82
2020/12/30 12:23:48;;;;;;;5.80;3.05;;;4.20;99.90;;;;;;4905063;28;20498;-82
2020/12/30 12:26:12;;;;;;;8.02;3.47;;;4.20;99.90;;;;;;4904302;28;20148;-82
2020/12/30 12:28:59;;;;;;;6.85;3.50;;;4.30;99.90;;;;;;4907191;28;20095;-82
2020/12/30 12:31:23;;;;;;;4.72;2.70;;;4.30;99.90;;;;;;4907331;28;20086;-81
2020/12/30 12:33:48;;;;;;;12.65;4.05;;;4.40;99.90;;;;;;4907951;28;20536;-82
2020/12/30 12:36:12;;;;;;;9.13;3.85;;;4.30;99.90;;;;;;4908605;28;20102;-82
2020/12/30 12:38:35;;;;;;;8.60;3.35;;;4.40;99.90;;;;;;4907427;28;20485;-82
2020/12/30 12:41:08;;;;;;;7.55;3.67;;;4.40;99.90;;;;;;4908304;28;21206;-82
2020/12/30 12:43:32;;;;;;;8.13;3.53;;;4.40;99.90;;;;;;4898688;28;20098;-83
2020/12/30 12:45:57;;;;;;;14.02;3.65;;;4.40;99.90;;;;;;4905393;28;20148;-82
2020/12/30 12:48:20;;;;;;;5.68;3.35;;;4.40;99.90;;;;;;4906724;28;20116;-83
2020/12/30 12:50:44;;;;;;;7.95;3.42;;;4.40;99.90;;;;;;4895701;28;20426;-82
2020/12/30 12:53:09;;;;;;;8.73;4.25;;;4.40;99.90;;;;;;4899837;28;20122;-82
2020/12/30 12:55:35;;;;;;;8.65;3.30;;;4.30;99.90;;;;;;4893474;28;20125;-82
2020/12/30 12:57:58;;;;;;;10.18;3.17;;;4.40;99.90;;;;;;4896200;28;20419;-82
2020/12/30 13:00:24;;;;;;;5.50;2.95;;;;;;;;;;4907284;28;20110;-82
2020/12/30 13:02:49;;;;;;;5.40;2.65;;;;;;;;;;4907303;28;20438;-82
2020/12/30 13:05:13;;;;;;;10.07;3.70;;;4.30;99.90;;;;;;4905681;28;20547;-82
2020/12/30 13:07:35;;;;;;;7.85;3.30;;;4.40;99.90;;;;;;4907770;28;20185;-82
2020/12/30 13:09:59;;;;;;;4.75;2.45;;;4.40;99.90;;;;;;4903524;28;20182;-82
2020/12/30 13:12:22;;;;;;;15.75;3.42;;;4.30;99.90;;;;;;4898650;28;20535;-82
2020/12/30 13:14:47;;;;;;;6.30;3.30;;;4.30;99.90;;;;;;4894355;28;20094;-82
2020/12/30 13:17:11;;;;;;;9.18;3.47;;;4.20;99.90;;;;;;4906481;28;20091;-82
2020/12/30 13:19:38;;;;;;;8.77;4.38;;;4.20;99.90;;;;;;4903860;28;20433;-82
2020/12/30 13:22:06;;;;;;;16.10;5.13;;;4.20;99.90;;;;;;4892173;28;20091;-83
2020/12/30 13:24:29;;;;;;;7.13;3.25;;;4.10;99.90;;;;;;4901158;28;20078;-82
2020/12/30 13:26:52;;;;;;;6.53;3.35;;;4.00;99.90;;;;;;4904753;28;20091;-83
2020/12/30 13:29:15;;;;;;;8.85;3.20;;;4.00;99.90;;;;;;4906067;28;20197;-83
2020/12/30 13:31:38;;;;;;;8.35;3.72;;;;;;;;;;4906969;28;20141;-82
2020/12/30 13:34:01;;;;;;;8.38;2.83;;;4.00;99.90;;;;;;4907231;28;20095;-83
2020/12/30 13:36:26;;;;;;;8.23;3.30;;;3.90;99.90;;;;;;4911432;28;20133;-81
2020/12/30 13:38:51;;;;;;;7.57;3.35;;;3.80;99.90;;;;;;4908348;28;20098;-81
2020/12/30 13:41:14;;;;;;;7.65;3.17;;;3.70;99.90;;;;;;4905181;28;20145;-82
2020/12/30 13:43:38;;;;;;;6.75;3.22;;;3.70;99.90;;;;;;4909184;28;20101;-81
2020/12/30 13:46:02;;;;;;;5.30;3.03;;;3.70;99.90;;;;;;4905609;28;20087;-82